Česky Dansk Deutsch English Español Suomi Français Magyar Italiano Nederlands norsk Polski Português svenska Türkçe

 

Het Weer

Cagliari / Elmas (Italië)

08:20, 31 juli 2016 (GMT)

NWNNE
WE
SWSSE
Home            
Cagliari / Elmas Decimomannu Capo Carbonara Perdasdefogu Capo S. Lorenzo Capo Frasca Capo Bellavista Fonni Capo Caccia Alghero Olbia / Costa Smeralda Guardiavecchia Bizerte Figari Tabarka Tunis-Carthage Annaba Ajaccio Solenzara Jendouba Skikda Kelibia Trapani / Birgi

Om een weerknop op uw website of weblog te plaatsen, copieer onderstaande code en plak die in uw pagina. In het eerste vakje staat HTML-code, in het tweede vakje UBB-code.


Add to Google

Details

Wind speed:2 bf, 4 kn, 2.1 m/s, 4.6 miles/h, 7.4 km/h
Wind direction:SSE, 160° - SW, 230°
Visibility:Greater than 10000 m, 10 km, 32800 ft, 6.2 miles
Clouds:CAVOC
Temperature:29°C, 84°F
Gefühlte Temperatur:29°C, 85°F
Dew-point:18°C, 64°F
Atmospheric pressure:1015 hPa, 761.3 mmHg, 29.97 inHg, 1.002 atm
Relative humidity:51.5 %
METAR:LIEE 310820Z 19004KT 160V230 CAVOK 29/18 Q1015

Snelkoppelingen

Actuele weersinformatie van de hele wereld. Voeg locaties toe met het plus (+) symbool. Deze snelkoppelingen kunnen worden toegevoegd aan Google.

Lid van de Technetium groep

website free tracking
StatCounter NetStat W3C Validator

06-10-2022 03:04:25
astro.technetium.be money.technetium.be phote.technetium.be tafeltennistafel.technetium.be www.ligfiets.net